createdAt,value
2018-02-21T04:32:43.094Z,28.50
2018-02-21T04:35:10.733Z,28.62
2018-02-21T04:37:38.373Z,31.50
2018-02-21T04:40:06.065Z,30.83
2018-02-21T04:42:33.700Z,29.52
2018-02-21T04:45:01.345Z,29.48
2018-02-21T04:47:29.784Z,28.83
2018-02-21T04:49:57.420Z,29.10
2018-02-21T04:52:25.066Z,29.58
2018-02-21T04:54:57.910Z,29.25
2018-02-21T04:57:28.333Z,33.53
2018-02-21T05:00:01.829Z,36.22
2018-02-21T05:02:29.493Z,31.37
2018-02-21T05:04:57.137Z,36.72
2018-02-21T05:07:24.808Z,37.67
2018-02-21T05:09:52.457Z,37.97
2018-02-21T05:12:20.100Z,34.97
2018-02-21T05:14:47.785Z,35.63
2018-02-21T05:17:15.428Z,37.70
2018-02-21T05:19:43.073Z,38.17
2018-02-21T05:22:10.761Z,38.85
2018-02-21T05:24:38.409Z,35.65
2018-02-21T05:27:06.048Z,37.63
2018-02-21T05:29:33.741Z,36.35
2018-02-21T05:32:01.387Z,37.05
2018-02-21T05:34:29.801Z,39.53
2018-02-21T05:36:58.256Z,39.30
2018-02-21T05:39:25.903Z,37.05
2018-02-21T05:41:53.551Z,38.42
2018-02-21T05:44:21.226Z,35.92
2018-02-21T05:46:48.871Z,39.33
2018-02-21T05:49:16.513Z,40.05
2018-02-21T05:51:44.185Z,37.10
2018-02-21T05:54:11.832Z,35.70
2018-02-21T05:56:39.490Z,39.17
2018-02-21T05:59:07.157Z,40.40
2018-02-21T06:01:34.841Z,39.80
2018-02-21T06:04:02.489Z,40.12
2018-02-21T06:06:30.138Z,38.85
2018-02-21T06:08:57.809Z,43.83
2018-02-21T06:11:25.457Z,40.92
2018-02-21T06:13:53.150Z,42.92
2018-02-21T06:16:20.792Z,41.08
2018-02-21T06:18:48.432Z,40.97
2018-02-21T06:21:16.105Z,41.78
2018-02-21T06:23:43.794Z,41.45
2018-02-21T06:26:11.432Z,41.90
2018-02-21T06:28:39.077Z,42.15
2018-02-21T06:31:06.768Z,42.03
2018-02-21T06:33:34.413Z,40.60
2018-02-21T06:36:02.102Z,44.13
2018-02-21T06:38:29.782Z,42.65
2018-02-21T06:40:57.426Z,41.40
2018-02-21T06:43:25.126Z,42.53
2018-02-21T06:45:53.539Z,41.92
2018-02-21T06:48:21.175Z,43.33
2018-02-21T06:50:48.845Z,42.40
2018-02-21T06:53:16.488Z,40.65
2018-02-21T06:55:44.156Z,44.65
2018-02-21T06:58:11.859Z,42.58
2018-02-21T07:00:39.505Z,44.20
2018-02-21T07:03:07.153Z,39.30
2018-02-21T07:05:34.854Z,40.97
2018-02-21T07:08:02.502Z,43.50
2018-02-21T07:10:30.140Z,40.00
2018-02-21T07:12:57.831Z,39.95
2018-02-21T07:15:25.545Z,44.63
2018-02-21T07:17:53.923Z,41.63
2018-02-21T07:20:21.609Z,44.83
2018-02-21T07:22:49.248Z,42.47
2018-02-21T07:25:16.894Z,41.58
2018-02-21T07:27:45.321Z,41.35
2018-02-21T07:30:12.990Z,43.10
2018-02-21T07:32:40.637Z,46.78
2018-02-21T07:35:08.288Z,46.45
2018-02-21T07:37:35.977Z,44.03
2018-02-21T07:40:03.626Z,43.30
2018-02-21T07:42:31.279Z,41.50
2018-02-21T07:44:58.946Z,40.63
2018-02-21T07:47:26.585Z,42.20
2018-02-21T07:49:54.277Z,43.28
2018-02-21T07:52:21.921Z,45.03
2018-02-21T07:54:49.565Z,42.65
2018-02-21T07:57:17.267Z,43.30
2018-02-21T07:59:44.927Z,47.58
2018-02-21T08:02:12.573Z,51.25
2018-02-21T08:04:41.005Z,52.92
2018-02-21T08:07:08.649Z,51.75
2018-02-21T08:09:37.096Z,52.65
2018-02-21T08:12:04.733Z,51.85
2018-02-21T08:14:32.380Z,49.60
2018-02-21T08:17:00.062Z,48.78
2018-02-21T08:19:27.700Z,49.17
2018-02-21T08:21:55.336Z,46.15
2018-02-21T08:24:23.880Z,45.25
2018-02-21T08:26:51.521Z,44.17
2018-02-21T08:29:19.161Z,47.33
2018-02-21T08:31:46.857Z,44.20
2018-02-21T08:34:14.502Z,44.78
2018-02-21T08:36:42.142Z,48.40
2018-02-21T08:39:09.829Z,45.55
2018-02-21T08:41:37.472Z,40.42
2018-02-21T08:44:05.117Z,46.75
2018-02-21T08:46:32.785Z,43.75
2018-02-21T08:49:00.453Z,42.38
2018-02-21T08:51:28.141Z,44.55
2018-02-21T08:53:56.569Z,44.25
2018-02-21T08:56:24.210Z,44.05
2018-02-21T08:58:52.645Z,46.08
2018-02-21T09:01:20.290Z,46.90
2018-02-21T09:03:47.924Z,44.88
2018-02-21T09:06:15.590Z,44.60
2018-02-21T09:08:43.235Z,44.38
2018-02-21T09:11:11.669Z,43.90
2018-02-21T09:13:39.367Z,42.10
2018-02-21T09:16:07.778Z,44.50
2018-02-21T09:18:35.421Z,46.47
2018-02-21T09:21:03.125Z,47.05
2018-02-21T09:23:30.766Z,46.58
2018-02-21T09:25:58.410Z,41.60
2018-02-21T09:28:26.106Z,39.35
2018-02-21T09:30:53.749Z,39.15
2018-02-21T09:33:21.401Z,42.33
2018-02-21T09:35:49.090Z,40.05
2018-02-21T09:38:16.737Z,45.63
2018-02-21T09:40:44.385Z,45.45
2018-02-21T09:43:12.101Z,44.85
2018-02-21T09:45:39.737Z,48.53
2018-02-21T09:48:08.149Z,51.80
2018-02-21T09:50:36.581Z,47.50
2018-02-21T09:53:04.224Z,44.75
2018-02-21T09:55:31.892Z,42.53
2018-02-21T09:57:59.540Z,41.85
2018-02-21T10:00:27.185Z,42.20
2018-02-21T10:02:55.620Z,36.95
2018-02-21T10:05:23.266Z,37.22
2018-02-21T10:07:50.913Z,42.25
2018-02-21T10:10:18.585Z,42.28
2018-02-21T10:12:46.229Z,39.00
2018-02-21T10:15:13.869Z,37.22
2018-02-21T10:17:41.554Z,38.83
2018-02-21T10:20:09.201Z,37.58
2018-02-21T10:22:36.844Z,37.40
2018-02-21T10:25:04.512Z,37.40
2018-02-21T10:27:32.152Z,38.25
2018-02-21T10:30:00.560Z,37.97
2018-02-21T10:32:28.229Z,38.13
2018-02-21T10:34:56.143Z,36.30
2018-02-21T10:37:23.844Z,40.40
2018-02-21T10:39:51.489Z,40.53
2018-02-21T10:42:19.898Z,39.53
2018-02-21T10:44:47.553Z,33.78
2018-02-21T10:47:15.200Z,34.13
2018-02-21T10:49:42.868Z,35.13
2018-02-21T10:52:10.541Z,34.83
2018-02-21T10:54:38.184Z,37.13
2018-02-21T10:57:05.870Z,38.72
2018-02-21T10:59:33.548Z,38.25
2018-02-21T11:02:01.193Z,38.33
2018-02-21T11:04:28.861Z,36.20
2018-02-21T11:06:56.501Z,38.22
2018-02-21T11:09:24.141Z,39.17
2018-02-21T11:11:51.829Z,38.50
2018-02-21T11:14:19.473Z,38.95
2018-02-21T11:16:47.121Z,38.15
2018-02-21T11:19:14.823Z,38.10
2018-02-21T11:21:42.465Z,35.92
2018-02-21T11:24:10.102Z,37.55
2018-02-21T11:26:37.821Z,38.58
2018-02-21T11:29:05.465Z,39.47
2018-02-21T11:31:33.105Z,35.65
2018-02-21T11:34:00.768Z,37.53
2018-02-21T11:36:28.417Z,35.20
2018-02-21T11:38:56.053Z,35.25
2018-02-21T11:41:24.587Z,35.85
2018-02-21T11:43:52.224Z,36.83
2018-02-21T11:46:19.863Z,34.35
2018-02-21T11:48:48.300Z,34.90
2018-02-21T11:51:15.935Z,32.88
2018-02-21T11:53:43.629Z,32.55
2018-02-21T11:56:11.278Z,34.85
2018-02-21T11:58:38.928Z,33.15
2018-02-21T12:01:06.605Z,32.00
2018-02-21T12:03:34.245Z,32.95
2018-02-21T12:06:01.890Z,28.40
2018-02-21T12:08:29.557Z,27.87
2018-02-21T12:10:57.201Z,28.95
2018-02-21T12:13:24.868Z,28.35
2018-02-21T12:15:52.561Z,29.02
2018-02-21T12:18:20.198Z,24.60
2018-02-21T12:20:47.840Z,25.58
2018-02-21T12:23:15.516Z,28.10
2018-02-21T12:25:43.169Z,27.55
2018-02-21T12:28:10.800Z,26.83
2018-02-21T12:30:39.280Z,27.10
2018-02-21T12:33:07.682Z,24.52
2018-02-21T12:35:35.314Z,23.95
2018-02-21T12:38:03.760Z,25.67
2018-02-21T12:40:37.005Z,21.83
2018-02-21T12:43:04.684Z,22.17
2018-02-21T12:45:32.331Z,24.70
2018-02-21T12:47:59.968Z,25.12
2018-02-21T12:50:28.410Z,26.10
2018-02-21T12:52:56.045Z,25.48
2018-02-21T12:55:23.682Z,23.58
2018-02-21T12:57:51.357Z,20.25
2018-02-21T13:00:18.988Z,20.92
2018-02-21T13:02:47.384Z,19.98
2018-02-21T13:05:15.048Z,19.33
2018-02-21T13:07:42.709Z,20.98
2018-02-21T13:10:10.384Z,20.58
2018-02-21T13:12:38.017Z,22.37
2018-02-21T13:15:05.656Z,19.02
2018-02-21T13:17:33.313Z,20.17
2018-02-21T13:20:02.139Z,19.35
2018-02-21T13:22:29.801Z,18.75
2018-02-21T13:24:57.432Z,19.05
2018-02-21T13:27:25.873Z,20.27
2018-02-21T13:29:53.504Z,20.00
2018-02-21T13:32:21.136Z,19.85
2018-02-21T13:34:49.577Z,20.55
2018-02-21T13:37:17.271Z,20.90
2018-02-21T13:39:45.677Z,21.95
2018-02-21T13:42:13.312Z,21.87
2018-02-21T13:44:41.772Z,20.15
2018-02-21T13:47:09.410Z,20.95
2018-02-21T13:49:37.048Z,21.70
2018-02-21T13:52:04.702Z,20.10
2018-02-21T13:54:32.335Z,21.62
2018-02-21T13:57:00.762Z,21.45
2018-02-21T13:59:28.448Z,20.48
2018-02-21T14:01:56.090Z,21.77
2018-02-21T14:04:23.723Z,21.77
2018-02-21T14:06:51.396Z,21.15
2018-02-21T14:09:19.038Z,22.77
2018-02-21T14:11:46.677Z,23.27
2018-02-21T14:14:15.129Z,23.05
2018-02-21T14:16:42.765Z,23.95
2018-02-21T14:19:10.401Z,25.48
2018-02-21T14:21:38.097Z,25.17
2018-02-21T14:24:05.732Z,25.12
2018-02-21T14:26:33.370Z,24.52
2018-02-21T14:29:01.028Z,25.45
2018-02-21T14:31:28.664Z,24.45
2018-02-21T14:33:57.068Z,23.52
2018-02-21T14:36:24.724Z,23.02
2018-02-21T14:38:52.354Z,21.48
2018-02-21T14:41:20.029Z,21.75
2018-02-21T14:43:47.679Z,22.50
2018-02-21T14:46:15.314Z,24.17
2018-02-21T14:48:43.773Z,21.37
2018-02-21T14:51:11.408Z,22.23
2018-02-21T14:53:39.041Z,23.40
2018-02-21T14:56:07.481Z,23.83
2018-02-21T14:58:36.016Z,23.50
2018-02-21T15:01:04.453Z,22.62
2018-02-21T15:03:32.090Z,20.70
2018-02-21T15:05:59.730Z,20.55
2018-02-21T15:08:27.397Z,22.15
2018-02-21T15:10:55.028Z,21.10
2018-02-21T15:13:23.532Z,22.80
2018-02-21T15:15:51.161Z,20.70
2018-02-21T15:18:19.556Z,26.90
2018-02-21T15:20:47.232Z,21.48
2018-02-21T15:23:14.869Z,22.10
2018-02-21T15:25:43.295Z,21.73
2018-02-21T15:28:10.957Z,21.77
2018-02-21T15:30:38.594Z,20.27
2018-02-21T15:33:06.268Z,20.15
2018-02-21T15:35:33.896Z,19.15
2018-02-21T15:38:01.568Z,19.48
2018-02-21T15:40:29.261Z,18.37
2018-02-21T15:42:56.905Z,20.23
2018-02-21T15:45:24.545Z,18.98
2018-02-21T15:47:52.228Z,20.65
2018-02-21T15:50:19.859Z,16.35
2018-02-21T15:52:47.544Z,18.00
2018-02-21T15:55:15.184Z,16.37
2018-02-21T15:57:42.822Z,16.40
2018-02-21T16:00:11.244Z,15.77
2018-02-21T16:02:38.876Z,17.05
2018-02-21T16:05:07.277Z,15.20
2018-02-21T16:07:34.965Z,15.90
2018-02-21T16:10:02.613Z,15.50
2018-02-21T16:12:30.245Z,15.10
2018-02-21T16:14:57.944Z,16.25
2018-02-21T16:17:25.586Z,16.05
2018-02-21T16:19:53.215Z,15.27
2018-02-21T16:22:21.644Z,15.50
2018-02-21T16:24:49.272Z,16.80
2018-02-21T16:27:16.932Z,15.63
2018-02-21T16:29:44.589Z,15.80
2018-02-21T16:32:12.221Z,16.80
2018-02-21T16:34:40.635Z,16.40
2018-02-21T16:37:08.297Z,15.10
2018-02-21T16:39:35.932Z,15.15
2018-02-21T16:42:04.352Z,14.90
2018-02-21T16:44:31.988Z,15.15
2018-02-21T16:46:59.657Z,13.80
2018-02-21T16:49:27.487Z,14.25
2018-02-21T16:51:55.174Z,15.45
2018-02-21T16:54:22.808Z,14.80
2018-02-21T16:56:51.265Z,14.48
2018-02-21T16:59:18.897Z,15.32
2018-02-21T17:01:47.300Z,15.40
2018-02-21T17:04:14.958Z,15.90
2018-02-21T17:06:42.600Z,15.50
2018-02-21T17:09:10.240Z,14.82
2018-02-21T17:11:37.924Z,15.73
2018-02-21T17:14:05.565Z,14.23
2018-02-21T17:16:33.209Z,15.52
2018-02-21T17:19:00.916Z,15.38
2018-02-21T17:21:28.557Z,15.77
2018-02-21T17:23:56.192Z,14.45
2018-02-21T17:26:23.872Z,14.95
2018-02-21T17:28:51.509Z,14.98
2018-02-21T17:31:19.204Z,15.90
2018-02-21T17:33:46.885Z,15.45
2018-02-21T17:36:14.523Z,15.63
2018-02-21T17:38:42.166Z,15.40
2018-02-21T17:41:15.690Z,16.75
2018-02-21T17:43:43.329Z,14.30
2018-02-21T17:46:10.961Z,16.40
2018-02-21T17:48:38.619Z,15.73
2018-02-21T17:51:07.047Z,14.63
2018-02-21T17:53:34.686Z,15.18
2018-02-21T17:56:02.364Z,15.45
2018-02-21T17:58:30.148Z,15.20
2018-02-21T18:00:57.787Z,14.00
2018-02-21T18:03:25.428Z,16.08
2018-02-21T18:05:53.117Z,14.18
2018-02-21T18:08:20.769Z,13.93
2018-02-21T18:10:48.408Z,13.52
2018-02-21T18:13:16.082Z,16.75
2018-02-21T18:15:43.725Z,14.70
2018-02-21T18:18:11.420Z,14.35
2018-02-21T18:20:39.069Z,14.13
2018-02-21T18:23:06.710Z,15.55
2018-02-21T18:25:34.377Z,16.12
2018-02-21T18:28:02.021Z,14.95
2018-02-21T18:30:29.665Z,14.35
2018-02-21T18:32:58.104Z,15.95
2018-02-21T18:35:25.746Z,17.35
2018-02-21T18:37:53.393Z,15.85
2018-02-21T18:40:21.070Z,16.83
2018-02-21T18:42:48.756Z,16.42
2018-02-21T18:45:16.393Z,15.10
2018-02-21T18:47:44.041Z,18.35
2018-02-21T18:50:11.737Z,16.83
2018-02-21T18:52:40.451Z,16.65
2018-02-21T18:55:08.937Z,17.35
2018-02-21T18:57:36.721Z,18.10
2018-02-21T19:00:05.040Z,17.27
2018-02-21T19:02:33.488Z,17.60
2018-02-21T19:05:01.313Z,17.05
2018-02-21T19:07:29.719Z,17.95
2018-02-21T19:09:57.420Z,20.35
2018-02-21T19:12:25.111Z,20.37
2018-02-21T19:14:53.420Z,19.58
2018-02-21T19:17:21.099Z,19.45
2018-02-21T19:19:48.880Z,21.45
2018-02-21T19:22:16.556Z,19.67
2018-02-21T19:24:44.201Z,19.35
2018-02-21T19:27:11.945Z,20.30
2018-02-21T19:29:39.624Z,18.27
2018-02-21T19:32:07.268Z,17.65
2018-02-21T19:34:34.944Z,18.17
2018-02-21T19:37:02.617Z,17.65
2018-02-21T19:39:30.261Z,19.45
2018-02-21T19:41:57.904Z,16.48
2018-02-21T19:44:25.568Z,17.85
2018-02-21T19:46:54.017Z,16.75
2018-02-21T19:49:21.651Z,17.92
2018-02-21T19:51:50.063Z,17.25
2018-02-21T19:54:17.737Z,17.80
2018-02-21T19:56:45.408Z,18.33
2018-02-21T19:59:13.043Z,18.23
2018-02-21T20:01:40.716Z,18.05
2018-02-21T20:04:08.397Z,18.52
2018-02-21T20:06:36.049Z,18.58
2018-02-21T20:09:03.741Z,18.27
2018-02-21T20:11:31.431Z,18.62
2018-02-21T20:13:59.063Z,17.00
2018-02-21T20:16:26.703Z,19.37
2018-02-21T20:18:54.393Z,20.80
2018-02-21T20:21:22.805Z,24.08
2018-02-21T20:23:50.492Z,26.15
2018-02-21T20:26:18.185Z,25.60
2018-02-21T20:28:45.831Z,19.60
2018-02-21T20:31:13.478Z,20.05
2018-02-21T20:33:41.156Z,17.98
2018-02-21T20:36:08.796Z,19.12
2018-02-21T20:38:36.444Z,24.42
2018-02-21T20:41:04.105Z,23.27
2018-02-21T20:43:31.754Z,19.80
2018-02-21T20:45:59.433Z,27.75
2018-02-21T20:48:27.089Z,23.90
2018-02-21T20:50:54.728Z,19.05
2018-02-21T20:53:22.420Z,19.25
2018-02-21T20:55:50.115Z,19.40
2018-02-21T20:58:17.794Z,16.77
2018-02-21T21:00:46.203Z,17.48
2018-02-21T21:03:13.861Z,17.90
2018-02-21T21:05:41.545Z,17.58
2018-02-21T21:08:09.192Z,17.33
2018-02-21T21:10:36.843Z,18.30
2018-02-21T21:13:04.513Z,19.40
2018-02-21T21:15:32.160Z,16.25
2018-02-21T21:17:59.799Z,16.90
2018-02-21T21:20:27.476Z,23.42
2018-02-21T21:22:55.128Z,17.27
2018-02-21T21:25:22.796Z,16.40
2018-02-21T21:27:50.452Z,18.15
2018-02-21T21:30:18.144Z,15.80
2018-02-21T21:32:45.816Z,17.80
2018-02-21T21:35:13.469Z,16.23
2018-02-21T21:37:41.143Z,18.25
2018-02-21T21:40:08.816Z,16.60
2018-02-21T21:42:36.461Z,17.80
2018-02-21T21:45:04.106Z,17.30
2018-02-21T21:47:31.870Z,17.62
2018-02-21T21:49:59.509Z,16.50
2018-02-21T21:52:27.156Z,17.67
2018-02-21T21:54:54.825Z,16.70
2018-02-21T21:57:22.492Z,17.30
2018-02-21T21:59:50.171Z,16.35
2018-02-21T22:02:17.836Z,16.95
2018-02-21T22:04:45.481Z,18.25
2018-02-21T22:07:13.145Z,17.67
2018-02-21T22:09:40.820Z,18.52
2018-02-21T22:12:08.461Z,18.02
2018-02-21T22:14:36.100Z,18.73
2018-02-21T22:17:03.778Z,19.75
2018-02-21T22:19:31.422Z,19.67
2018-02-21T22:21:59.056Z,18.55
2018-02-21T22:24:27.487Z,18.98
2018-02-21T22:26:55.124Z,18.80
2018-02-21T22:29:22.817Z,18.83
2018-02-21T22:31:50.456Z,18.73
2018-02-21T22:34:18.097Z,20.98
2018-02-21T22:36:45.815Z,19.50
2018-02-21T22:39:13.461Z,19.05
2018-02-21T22:41:41.109Z,19.87
2018-02-21T22:44:09.546Z,18.95
2018-02-21T22:46:37.948Z,18.45
2018-02-21T22:49:05.753Z,18.70
2018-02-21T22:51:33.392Z,17.50
2018-02-21T22:54:01.037Z,18.27
2018-02-21T22:56:28.704Z,19.83
2018-02-21T22:58:56.348Z,17.92
2018-02-21T23:01:23.995Z,16.77
2018-02-21T23:03:51.681Z,18.55
2018-02-21T23:06:19.326Z,16.65
2018-02-21T23:08:47.013Z,16.87
2018-02-21T23:11:14.685Z,17.48
2018-02-21T23:13:42.338Z,19.48
2018-02-21T23:16:10.003Z,16.35
2018-02-21T23:18:37.646Z,18.48
2018-02-21T23:21:05.329Z,19.27
2018-02-21T23:23:32.973Z,17.60
2018-02-21T23:26:00.614Z,20.23
2018-02-21T23:28:28.289Z,18.87
